Virtual Norwegian is not affiliated with Norwegian Air Shuttle in any way.
If you are looking for the real "Norwegian", or you wish to book Norwegian flights, please visit Norwegian.com


We use cookies to ensure you get the best experience on our website.   ACCEPT

LOWS - SZG - Salzburg (Salzburg)

General Info Alternate Airport
ICAO: LOWS Elevation: 1411 ft ICAO: LOWL
IATA: SZG Country: Austria IATA: LNZ
City: Salzburg Charts: Log in to view charts City: Linz
Name: Salzburg Hub: No Name Linz
General Info
ICAO: LOWS
IATA: SZG
City: Salzburg
Name: Salzburg
Elevation: 1411 ft
Country: Austria
Charts: Log in to view charts
Hub: No
 
Alternate Airport
ICAO: LOWL
IATA: LNZ
City: Linz
Name: Linz

Weather
250350Z AUTO 05011KT 9999 FEW028 M08/M12 Q1020
Weather
250350Z AUTO 05011KT 9999 FEW028 M08/M12 Q1020

Runway Info
15
Length ILS/LOC Course
2750 m 109.90 154
33
Length ILS/LOC Heading
2750 m N/A 337

NOTAMs
NOTAMs currently unavailable.
NOTAMs
NOTAMs currently unavailable

Route map
Airport
Airport (hub)